Pleasant Hill, New Mexico
Current Conditions -  °F | °C
As of 7:55 AM on Monday 22 Dec 2014 (Local Time) from KCVN Reporting Station
Clear Clear  
Wind Chill: 30°   Ceiling: Unl
Heat Index: 39°   Visibility: 10mi
Dew Point: 30°   Wind: 17mph
Humidity: 70%   Direction: 350°N
Pressure: 29.78"   Gusts: NA
Location:  34.3983°N, 103.093°W
Report Text: KCVN 221455Z 35015KT 10SM CLR 04/M01 A2978 RMK AO1 52030
Loading
Personal Weather Stations






























Interactive Weather Map New forecast layout! Learn more

10-Day Weather Forecast

Advertisements
Track Severe Weather on mobile